Time;durP1;ratioP1;P1;durP2;ratioP2;P2;SDS_P1;SDS_P2;PMS_P1;PMS_P2;Temp;Humidity;BMP_temperature;BMP_pressure;BME280_temperature;BME280_humidity;BME280_pressure;Samples;Min_cycle;Max_cycle;Signal;HPM_P1;HPM_P2
2024/03/06 00:01:27;;;;;;;5.68;5.18;;;;;;;;;;4975695;28;20267;-86
2024/03/06 00:03:56;;;;;;;6.13;5.53;;;;;;;;;;4988529;28;20294;-86
2024/03/06 00:06:24;;;;;;;7.15;5.65;;;;;;;;;;4988905;28;20243;-88
2024/03/06 00:08:53;;;;;;;7.15;5.25;;;;;;;;;;4993569;28;20207;-89
2024/03/06 00:11:21;;;;;;;7.85;5.85;;;;;;;;;;5015104;28;20210;-91
2024/03/06 00:13:50;;;;;;;5.63;5.13;;;;;;;;;;5008371;28;20222;-88
2024/03/06 00:16:20;;;;;;;9.25;7.05;;;;;;;;;;5006716;28;20202;-90
2024/03/06 00:18:48;;;;;;;12.65;8.27;;;;;;;;;;5014307;28;20213;-88
2024/03/06 00:21:17;;;;;;;9.68;7.40;;;;;;;;;;5008555;28;20368;-86
2024/03/06 00:23:46;;;;;;;7.80;5.82;;;;;;;;;;5031273;28;20213;-86
2024/03/06 00:26:14;;;;;;;9.00;6.07;;;;;;;;;;5007834;28;20206;-87
2024/03/06 00:28:42;;;;;;;8.40;6.93;;;;;;;;;;5010609;28;20694;-86
2024/03/06 00:31:11;;;;;;;7.82;5.65;;;;;;;;;;4997906;28;20206;-87
2024/03/06 00:33:42;;;;;;;6.70;5.80;;;;;;;;;;5007485;28;20214;-85
2024/03/06 00:36:10;;;;;;;17.60;9.75;;;;;;;;;;4999308;28;20661;-86
2024/03/06 00:38:38;;;;;;;12.80;8.05;;;;;;;;;;5000437;28;20205;-85
2024/03/06 00:41:07;;;;;;;6.93;6.22;;;;;;;;;;5013053;28;20203;-89
2024/03/06 00:43:35;;;;;;;5.72;5.05;;;;;;;;;;4999293;28;20656;-88
2024/03/06 00:46:04;;;;;;;8.05;5.57;;;;;;;;;;4999764;28;20282;-89
2024/03/06 00:48:32;;;;;;;6.47;5.63;;;;;;;;;;5003000;28;20234;-89
2024/03/06 00:51:02;;;;;;;7.50;5.47;;;;;;;;;;5144273;23;20493;-89
2024/03/06 00:53:30;;;;;;;29.77;15.50;;;;;;;;;;5008958;28;20257;-88
2024/03/06 00:55:59;;;;;;;27.23;12.90;;;;;;;;;;5018202;28;20297;-88
2024/03/06 00:58:27;;;;;;;19.42;11.07;;;;;;;;;;5011466;28;20301;-90
2024/03/06 01:00:57;;;;;;;8.40;5.85;;;;;;;;;;5022355;28;20265;-91
2024/03/06 01:03:29;;;;;;;9.30;5.40;;;;;;;;;;5007214;28;20356;-88
2024/03/06 01:05:57;;;;;;;7.38;5.05;;;;;;;;;;4992908;28;20208;-88
2024/03/06 01:08:27;;;;;;;6.63;4.90;;;;;;;;;;5009734;28;20240;-88
2024/03/06 01:10:55;;;;;;;5.88;4.63;;;;;;;;;;5011089;28;20681;-88
2024/03/06 01:13:24;;;;;;;12.75;7.97;;;;;;;;;;5017031;28;20255;-84
2024/03/06 01:15:52;;;;;;;10.63;7.47;;;;;;;;;;5006519;28;20810;-85
2024/03/06 01:18:20;;;;;;;9.38;7.57;;;;;;;;;;5027789;28;20208;-86
2024/03/06 01:20:51;;;;;;;15.15;10.10;;;;;;;;;;5002844;28;20683;-87
2024/03/06 01:23:20;;;;;;;10.13;7.47;;;;;;;;;;5011614;28;20205;-87
2024/03/06 01:25:49;;;;;;;7.40;5.90;;;;;;;;;;5028601;28;20686;-87
2024/03/06 01:28:18;;;;;;;6.50;5.13;;;;;;;;;;5026399;28;20298;-86
2024/03/06 01:30:46;;;;;;;10.93;7.85;;;;;;;;;;5026638;28;20218;-86
2024/03/06 01:33:15;;;;;;;20.83;12.95;;;;;;;;;;5021861;28;20202;-87
2024/03/06 01:35:43;;;;;;;17.92;11.38;;;;;;;;;;5030206;28;20205;-86
2024/03/06 01:38:11;;;;;;;8.23;6.35;;;;;;;;;;4998412;28;20260;-86
2024/03/06 01:40:44;;;;;;;7.63;5.97;;;;;;;;;;5007368;28;20222;-88
2024/03/06 01:43:21;;;;;;;10.93;7.15;;;;;;;;;;5012522;28;20194;-87
2024/03/06 01:45:50;;;;;;;9.00;6.85;;;;;;;;;;5020581;28;20262;-87
2024/03/06 01:48:19;;;;;;;9.07;6.78;;;;;;;;;;5032006;28;20244;-87
2024/03/06 01:50:47;;;;;;;6.82;5.90;;;;;;;;;;5026153;28;20205;-87
2024/03/06 01:53:16;;;;;;;4.97;4.57;;;;;;;;;;5021226;28;20202;-87
2024/03/06 01:55:45;;;;;;;5.57;4.68;;;;;;;;;;5004904;28;20209;-86
2024/03/06 01:58:13;;;;;;;8.05;5.22;;;;;;;;;;5006470;28;20707;-86
2024/03/06 02:00:43;;;;;;;7.50;5.38;;;;;;;;;;5027616;28;20744;-87
2024/03/06 02:03:13;;;;;;;5.57;5.07;;;;;;;;;;5024369;28;20220;-86
2024/03/06 02:05:43;;;;;;;6.65;5.90;;;;;;;;;;5007045;28;20224;-87
2024/03/06 02:08:11;;;;;;;7.25;5.60;;;;;;;;;;5028007;28;20236;-87
2024/03/06 02:10:41;;;;;;;6.50;4.60;;;;;;;;;;5024485;28;20740;-86
2024/03/06 02:13:10;;;;;;;5.63;5.13;;;;;;;;;;5025579;28;20232;-86
2024/03/06 02:15:40;;;;;;;5.88;4.80;;;;;;;;;;5021914;28;20205;-86
2024/03/06 02:18:10;;;;;;;6.15;5.03;;;;;;;;;;5029953;28;20205;-86
2024/03/06 02:20:41;;;;;;;7.88;5.35;;;;;;;;;;5022302;28;20638;-87
2024/03/06 02:23:09;;;;;;;5.68;5.07;;;;;;;;;;4991871;28;20279;-87
2024/03/06 02:25:37;;;;;;;6.28;5.30;;;;;;;;;;5026085;28;20591;-85
2024/03/06 02:28:06;;;;;;;7.10;5.88;;;;;;;;;;5032333;28;20270;-86
2024/03/06 02:30:36;;;;;;;6.75;5.25;;;;;;;;;;5010587;28;20747;-88
2024/03/06 02:33:05;;;;;;;4.93;4.53;;;;;;;;;;5019761;28;20210;-87
2024/03/06 02:35:34;;;;;;;5.90;4.88;;;;;;;;;;5018557;28;20268;-86
2024/03/06 02:38:05;;;;;;;5.85;5.25;;;;;;;;;;5010426;28;20267;-85
2024/03/06 02:40:34;;;;;;;7.25;5.15;;;;;;;;;;5030994;28;20567;-86
2024/03/06 02:43:04;;;;;;;8.93;5.90;;;;;;;;;;5008262;28;20660;-87
2024/03/06 02:45:33;;;;;;;6.80;5.65;;;;;;;;;;5024033;28;20211;-85
2024/03/06 02:48:02;;;;;;;5.35;4.85;;;;;;;;;;5020015;28;20233;-85
2024/03/06 02:50:30;;;;;;;11.27;5.90;;;;;;;;;;5020982;28;20632;-86
2024/03/06 02:52:59;;;;;;;7.18;5.03;;;;;;;;;;5022172;28;20770;-87
2024/03/06 02:55:28;;;;;;;6.68;5.93;;;;;;;;;;5024152;28;20226;-87
2024/03/06 02:57:57;;;;;;;5.03;4.60;;;;;;;;;;5032808;28;20213;-87
2024/03/06 03:00:25;;;;;;;6.38;5.72;;;;;;;;;;5024190;28;20202;-87
2024/03/06 03:02:54;;;;;;;6.20;5.35;;;;;;;;;;5004707;28;20285;-87
2024/03/06 03:05:22;;;;;;;6.15;5.22;;;;;;;;;;5028036;28;20202;-86
2024/03/06 03:07:50;;;;;;;7.00;5.50;;;;;;;;;;5025178;28;20235;-86
2024/03/06 03:10:20;;;;;;;6.22;5.45;;;;;;;;;;5022926;28;20215;-86
2024/03/06 03:12:50;;;;;;;9.90;4.85;;;;;;;;;;5007331;28;20286;-85
2024/03/06 03:15:18;;;;;;;6.35;5.32;;;;;;;;;;4995677;28;20585;-86
2024/03/06 03:17:46;;;;;;;9.95;6.60;;;;;;;;;;5022908;28;20209;-87
2024/03/06 03:20:16;;;;;;;6.05;5.07;;;;;;;;;;5027644;28;20216;-86
2024/03/06 03:22:45;;;;;;;5.53;4.93;;;;;;;;;;5028906;28;20210;-86
2024/03/06 03:25:14;;;;;;;5.80;5.18;;;;;;;;;;5009002;28;20593;-86
2024/03/06 03:27:43;;;;;;;6.05;5.13;;;;;;;;;;5026301;28;20214;-86
2024/03/06 03:30:21;;;;;;;6.72;5.40;;;;;;;;;;5017954;28;20214;-86
2024/03/06 03:32:49;;;;;;;10.45;6.65;;;;;;;;;;4993337;28;20202;-86
2024/03/06 03:35:20;;;;;;;10.00;9.00;;;;;;;;;;5021711;28;20636;-86
2024/03/06 03:37:51;;;;;;;12.88;8.35;;;;;;;;;;5009876;28;20618;-86
2024/03/06 03:40:20;;;;;;;9.18;7.45;;;;;;;;;;4999551;28;20230;-87
2024/03/06 03:42:48;;;;;;;5.25;4.75;;;;;;;;;;5026057;28;20209;-86
2024/03/06 03:45:20;;;;;;;6.50;4.80;;;;;;;;;;5026328;28;20201;-86
2024/03/06 03:47:48;;;;;;;5.85;5.30;;;;;;;;;;4995204;28;20250;-87
2024/03/06 03:50:16;;;;;;;5.63;4.80;;;;;;;;;;5025709;28;20225;-87
2024/03/06 03:52:45;;;;;;;5.05;4.57;;;;;;;;;;5004956;28;20206;-87
2024/03/06 03:55:13;;;;;;;6.25;4.43;;;;;;;;;;5023714;28;20217;-87
2024/03/06 03:57:41;;;;;;;5.47;4.75;;;;;;;;;;5019957;28;20213;-86
2024/03/06 04:00:11;;;;;;;6.95;5.00;;;;;;;;;;5018886;28;20201;-87
2024/03/06 04:02:42;;;;;;;6.45;5.85;;;;;;;;;;5028304;28;20201;-87
2024/03/06 04:05:10;;;;;;;5.32;4.78;;;;;;;;;;5028584;28;20250;-86
2024/03/06 04:07:39;;;;;;;7.93;4.95;;;;;;;;;;5027760;28;20578;-86
2024/03/06 04:10:10;;;;;;;7.88;5.90;;;;;;;;;;5029402;28;20245;-86
2024/03/06 04:12:39;;;;;;;6.85;5.70;;;;;;;;;;5014495;28;20230;-86
2024/03/06 04:15:08;;;;;;;6.50;5.38;;;;;;;;;;5024062;28;20588;-86
2024/03/06 04:17:37;;;;;;;5.93;4.95;;;;;;;;;;5019161;28;20682;-87
2024/03/06 04:20:07;;;;;;;7.32;5.85;;;;;;;;;;5015018;28;20201;-87
2024/03/06 04:22:36;;;;;;;8.10;6.45;;;;;;;;;;5029491;28;20213;-86
2024/03/06 04:25:06;;;;;;;6.95;5.60;;;;;;;;;;5018964;28;20197;-86
2024/03/06 04:27:34;;;;;;;11.13;5.05;;;;;;;;;;5023453;28;20205;-87
2024/03/06 04:30:04;;;;;;;7.03;4.55;;;;;;;;;;5003458;28;20218;-87
2024/03/06 04:32:33;;;;;;;7.60;5.28;;;;;;;;;;5008429;28;20210;-87
2024/03/06 04:35:01;;;;;;;5.10;4.40;;;;;;;;;;5024000;28;20235;-86
2024/03/06 04:37:33;;;;;;;5.30;4.80;;;;;;;;;;5015183;28;20589;-87
2024/03/06 04:40:01;;;;;;;6.03;4.72;;;;;;;;;;5015029;28;20591;-86
2024/03/06 04:42:29;;;;;;;5.65;4.75;;;;;;;;;;5013458;28;20216;-86
2024/03/06 04:44:57;;;;;;;5.05;4.55;;;;;;;;;;5017857;28;20206;-86
2024/03/06 04:47:25;;;;;;;5.82;4.30;;;;;;;;;;5001654;28;20205;-86
2024/03/06 04:49:54;;;;;;;7.97;5.15;;;;;;;;;;5018191;28;20234;-86
2024/03/06 04:52:22;;;;;;;5.90;5.25;;;;;;;;;;5024244;28;20664;-86
2024/03/06 04:54:52;;;;;;;4.93;4.47;;;;;;;;;;5022026;28;20673;-87
2024/03/06 04:57:20;;;;;;;34.05;5.93;;;;;;;;;;5023716;28;20206;-86
2024/03/06 04:59:48;;;;;;;22.92;17.15;;;;;;;;;;5030416;28;20205;-86
2024/03/06 05:02:16;;;;;;;7.97;6.25;;;;;;;;;;5022661;28;20570;-86
2024/03/06 05:04:46;;;;;;;4.65;4.30;;;;;;;;;;5003993;28;20213;-87
2024/03/06 05:07:14;;;;;;;7.55;4.60;;;;;;;;;;5027721;28;20256;-86
2024/03/06 05:09:43;;;;;;;6.53;4.68;;;;;;;;;;5024303;28;20233;-86
2024/03/06 05:12:12;;;;;;;4.30;4.00;;;;;;;;;;5010806;28;20205;-86
2024/03/06 05:14:40;;;;;;;3.90;3.60;;;;;;;;;;5026416;28;20206;-86
2024/03/06 05:17:10;;;;;;;5.38;4.03;;;;;;;;;;5024160;28;20205;-86
2024/03/06 05:19:38;;;;;;;5.00;4.50;;;;;;;;;;5026799;28;20205;-86
2024/03/06 05:22:08;;;;;;;4.53;3.72;;;;;;;;;;5025233;28;20201;-86
2024/03/06 05:24:39;;;;;;;4.30;3.90;;;;;;;;;;5024930;28;20205;-83
2024/03/06 05:27:07;;;;;;;7.75;4.72;;;;;;;;;;4999758;28;20673;-86
2024/03/06 05:29:37;;;;;;;5.03;4.53;;;;;;;;;;5007526;28;20611;-86
2024/03/06 05:32:06;;;;;;;6.05;5.35;;;;;;;;;;5023357;28;20206;-87
2024/03/06 05:34:35;;;;;;;15.65;9.35;;;;;;;;;;5027482;28;20206;-87
2024/03/06 05:37:04;;;;;;;21.27;10.77;;;;;;;;;;5023127;28;20667;-86
2024/03/06 05:39:32;;;;;;;13.65;8.70;;;;;;;;;;5031019;28;20205;-86
2024/03/06 05:42:04;;;;;;;9.68;6.55;;;;;;;;;;5026166;28;20206;-85
2024/03/06 05:44:32;;;;;;;5.68;5.10;;;;;;;;;;5025316;28;20206;-85
2024/03/06 05:47:03;;;;;;;5.22;4.72;;;;;;;;;;5011974;28;20255;-86
2024/03/06 05:49:32;;;;;;;5.80;4.22;;;;;;;;;;5023521;28;20225;-86
2024/03/06 05:52:00;;;;;;;20.45;11.32;;;;;;;;;;5026424;28;20224;-86
2024/03/06 05:54:29;;;;;;;11.02;7.15;;;;;;;;;;5026330;28;20210;-86
2024/03/06 05:56:57;;;;;;;6.28;5.60;;;;;;;;;;5028046;28;20697;-86
2024/03/06 05:59:26;;;;;;;9.27;5.72;;;;;;;;;;5025846;28;20796;-84
2024/03/06 06:01:54;;;;;;;6.50;5.90;;;;;;;;;;5021546;28;20209;-87
2024/03/06 06:04:24;;;;;;;10.95;9.00;;;;;;;;;;5025776;28;20206;-86
2024/03/06 06:06:53;;;;;;;10.88;8.13;;;;;;;;;;5004217;28;20261;-84
2024/03/06 06:09:21;;;;;;;8.10;7.10;;;;;;;;;;4983378;28;20271;-87
2024/03/06 06:11:50;;;;;;;11.80;6.20;;;;;;;;;;5019294;28;20653;-86
2024/03/06 06:14:18;;;;;;;6.57;6.03;;;;;;;;;;5024360;28;20256;-85
2024/03/06 06:16:47;;;;;;;10.07;6.60;;;;;;;;;;5025687;28;20235;-81
2024/03/06 06:19:15;;;;;;;7.32;6.30;;;;;;;;;;5024478;28;20738;-81
2024/03/06 06:21:44;;;;;;;8.85;6.25;;;;;;;;;;5011377;28;20221;-82
2024/03/06 06:24:13;;;;;;;6.57;5.97;;;;;;;;;;5025438;28;20208;-80
2024/03/06 06:26:42;;;;;;;7.25;6.55;;;;;;;;;;5003876;28;20218;-79
2024/03/06 06:29:10;;;;;;;8.38;6.63;;;;;;;;;;5003880;28;20214;-85
2024/03/06 06:31:38;;;;;;;9.43;6.45;;;;;;;;;;5022735;28;20703;-82
2024/03/06 06:34:07;;;;;;;7.80;6.60;;;;;;;;;;5013169;28;20210;-82
2024/03/06 06:36:36;;;;;;;6.50;5.90;;;;;;;;;;5002964;28;20220;-85
2024/03/06 06:39:06;;;;;;;9.27;6.95;;;;;;;;;;5023259;28;20202;-83
2024/03/06 06:41:34;;;;;;;9.27;6.78;;;;;;;;;;5025811;28;20216;-84
2024/03/06 06:44:03;;;;;;;9.98;7.05;;;;;;;;;;5014003;28;20201;-84
2024/03/06 06:46:31;;;;;;;7.30;6.65;;;;;;;;;;4998763;28;20587;-83
2024/03/06 06:48:59;;;;;;;7.40;6.72;;;;;;;;;;5008460;28;20670;-84
2024/03/06 06:51:28;;;;;;;8.88;8.02;;;;;;;;;;5011404;28;20238;-83
2024/03/06 06:53:56;;;;;;;10.52;8.95;;;;;;;;;;5013148;28;20216;-84
2024/03/06 06:56:26;;;;;;;9.18;7.57;;;;;;;;;;5023179;28;20764;-86
2024/03/06 06:58:54;;;;;;;9.43;7.20;;;;;;;;;;5028573;28;20208;-88
2024/03/06 07:01:23;;;;;;;9.25;6.80;;;;;;;;;;5030941;28;20247;-90
2024/03/06 07:03:51;;;;;;;7.20;6.35;;;;;;;;;;5020142;28;20276;-88
2024/03/06 07:06:20;;;;;;;10.00;6.95;;;;;;;;;;5023775;28;20206;-85
2024/03/06 07:08:50;;;;;;;8.27;7.47;;;;;;;;;;5026651;28;20206;-86
2024/03/06 07:11:19;;;;;;;7.32;6.60;;;;;;;;;;5028208;28;20695;-86
2024/03/06 07:13:48;;;;;;;6.35;5.55;;;;;;;;;;5025917;28;20233;-85
2024/03/06 07:16:17;;;;;;;9.80;6.00;;;;;;;;;;5023165;28;20212;-86
2024/03/06 07:18:46;;;;;;;6.95;6.35;;;;;;;;;;5007872;28;20201;-84
2024/03/06 07:21:16;;;;;;;17.05;14.68;;;;;;;;;;5025000;28;20235;-85
2024/03/06 07:23:46;;;;;;;9.77;8.65;;;;;;;;;;5002318;28;20229;-85
2024/03/06 07:26:14;;;;;;;14.73;8.70;;;;;;;;;;5021846;28;20213;-86
2024/03/06 07:28:43;;;;;;;16.92;12.23;;;;;;;;;;5027740;28;20205;-87
2024/03/06 07:31:12;;;;;;;11.90;10.50;;;;;;;;;;5025077;28;20711;-83
2024/03/06 07:33:40;;;;;;;10.70;8.25;;;;;;;;;;5023473;28;20214;-84
2024/03/06 07:36:09;;;;;;;9.23;7.32;;;;;;;;;;5027450;28;20209;-85
2024/03/06 07:38:37;;;;;;;11.25;7.95;;;;;;;;;;5029230;28;20209;-83
2024/03/06 07:41:06;;;;;;;8.25;7.38;;;;;;;;;;5005750;28;20743;-84
2024/03/06 07:43:34;;;;;;;9.13;6.97;;;;;;;;;;5027362;28;20204;-86
2024/03/06 07:46:02;;;;;;;9.18;6.90;;;;;;;;;;5033693;28;20262;-89
2024/03/06 07:48:32;;;;;;;8.95;6.68;;;;;;;;;;5027905;28;20283;-88
2024/03/06 07:51:00;;;;;;;10.18;7.25;;;;;;;;;;5028076;28;20222;-89
2024/03/06 07:53:28;;;;;;;11.63;7.25;;;;;;;;;;5006449;28;20336;-88
2024/03/06 07:55:58;;;;;;;6.97;6.32;;;;;;;;;;5035442;28;20261;-86
2024/03/06 07:58:26;;;;;;;6.30;5.70;;;;;;;;;;5005772;28;20205;-81
2024/03/06 08:00:56;;;;;;;9.13;6.70;;;;;;;;;;5007934;28;20198;-85
2024/03/06 08:03:24;;;;;;;8.00;7.20;;;;;;;;;;5013806;28;20202;-83
2024/03/06 08:05:54;;;;;;;9.38;7.65;;;;;;;;;;5010928;28;20267;-84
2024/03/06 08:08:24;;;;;;;9.35;6.93;;;;;;;;;;5019609;28;20222;-84
2024/03/06 08:10:52;;;;;;;6.00;5.45;;;;;;;;;;4981578;28;20225;-83
2024/03/06 08:13:27;;;;;;;9.27;7.22;;;;;;;;;;5022152;28;20244;-83
2024/03/06 08:15:55;;;;;;;6.07;5.47;;;;;;;;;;5012573;28;20247;-83
2024/03/06 08:18:23;;;;;;;6.97;6.07;;;;;;;;;;5023657;28;20213;-83
2024/03/06 08:20:52;;;;;;;6.55;5.85;;;;;;;;;;5024366;28;20690;-82
2024/03/06 08:23:23;;;;;;;8.18;6.13;;;;;;;;;;5024705;28;20201;-86
2024/03/06 08:25:51;;;;;;;6.38;5.78;;;;;;;;;;5023620;28;20288;-87
2024/03/06 08:28:19;;;;;;;15.93;7.13;;;;;;;;;;5029677;28;20219;-85
2024/03/06 08:30:47;;;;;;;6.32;5.82;;;;;;;;;;5031645;28;20221;-84
2024/03/06 08:33:17;;;;;;;8.98;7.05;;;;;;;;;;5015845;28;20270;-83
2024/03/06 08:35:47;;;;;;;8.23;6.65;;;;;;;;;;5010043;28;20684;-82
2024/03/06 08:38:17;;;;;;;10.60;7.13;;;;;;;;;;5020787;28;20712;-85
2024/03/06 08:40:46;;;;;;;11.52;7.95;;;;;;;;;;5024128;28;20202;-82
2024/03/06 08:43:15;;;;;;;7.50;6.43;;;;;;;;;;5013555;28;20206;-82
2024/03/06 08:45:43;;;;;;;13.00;7.57;;;;;;;;;;5027220;28;20202;-82
2024/03/06 08:48:12;;;;;;;10.40;8.80;;;;;;;;;;5024195;28;20211;-85
2024/03/06 08:50:40;;;;;;;10.38;8.85;;;;;;;;;;5028304;28;20564;-84
2024/03/06 08:53:10;;;;;;;10.45;7.60;;;;;;;;;;5022644;28;20206;-84
2024/03/06 08:55:38;;;;;;;9.30;7.20;;;;;;;;;;5002274;28;20206;-82
2024/03/06 08:58:08;;;;;;;9.02;8.15;;;;;;;;;;4997294;28;20234;-85
2024/03/06 09:00:37;;;;;;;9.35;7.03;;;;;;;;;;5030905;28;20264;-85
2024/03/06 09:03:06;;;;;;;7.93;7.13;;;;;;;;;;5018674;28;20668;-82
2024/03/06 09:05:34;;;;;;;8.20;7.40;;;;;;;;;;5008243;28;20218;-83
2024/03/06 09:08:02;;;;;;;9.32;7.38;;;;;;;;;;5023064;28;20207;-83
2024/03/06 09:10:31;;;;;;;9.52;8.15;;;;;;;;;;5027316;28;20243;-85
2024/03/06 09:12:59;;;;;;;9.80;8.05;;;;;;;;;;5023423;28;20226;-85
2024/03/06 09:15:30;;;;;;;9.02;8.15;;;;;;;;;;5027610;28;20275;-85
2024/03/06 09:17:58;;;;;;;11.40;7.20;;;;;;;;;;5018030;28;20209;-85
2024/03/06 09:20:26;;;;;;;11.23;8.63;;;;;;;;;;4993705;28;20263;-82
2024/03/06 09:22:56;;;;;;;10.68;7.88;;;;;;;;;;5026918;28;20202;-85
2024/03/06 09:25:25;;;;;;;11.15;8.65;;;;;;;;;;5002773;28;20661;-84
2024/03/06 09:27:53;;;;;;;10.13;7.32;;;;;;;;;;5014643;28;20217;-85
2024/03/06 09:30:22;;;;;;;9.07;7.88;;;;;;;;;;5028486;28;20202;-86
2024/03/06 09:32:51;;;;;;;10.88;8.75;;;;;;;;;;5028042;28;20222;-87
2024/03/06 09:35:20;;;;;;;9.95;8.57;;;;;;;;;;5017727;28;20214;-84
2024/03/06 09:37:49;;;;;;;9.77;7.80;;;;;;;;;;5008211;28;20214;-87
2024/03/06 09:40:24;;;;;;;10.75;8.82;;;;;;;;;;5027575;28;20213;-85
2024/03/06 09:42:53;;;;;;;9.70;8.07;;;;;;;;;;5030130;28;20670;-83
2024/03/06 09:45:21;;;;;;;8.43;7.65;;;;;;;;;;5022500;28;20224;-83
2024/03/06 09:47:51;;;;;;;9.73;8.30;;;;;;;;;;5023275;28;20270;-83
2024/03/06 09:50:25;;;;;;;10.20;8.65;;;;;;;;;;5026103;28;20661;-84
2024/03/06 09:52:55;;;;;;;14.23;9.25;;;;;;;;;;5004093;28;20711;-83
2024/03/06 09:55:23;;;;;;;8.63;7.22;;;;;;;;;;5023577;28;20209;-82
2024/03/06 09:57:52;;;;;;;10.35;8.95;;;;;;;;;;5021092;28;20752;-83
2024/03/06 10:00:21;;;;;;;14.40;10.25;;;;;;;;;;5022496;28;20216;-82
2024/03/06 10:02:53;;;;;;;10.15;8.35;;;;;;;;;;5024716;28;20205;-85
2024/03/06 10:05:27;;;;;;;10.30;7.05;;;;;;;;;;5017182;28;20216;-84
2024/03/06 10:07:55;;;;;;;9.63;7.45;;;;;;;;;;5021658;28;20213;-84
2024/03/06 10:10:24;;;;;;;8.10;7.30;;;;;;;;;;5027416;28;20209;-83
2024/03/06 10:12:52;;;;;;;10.55;7.05;;;;;;;;;;5025928;28;20668;-83
2024/03/06 10:15:21;;;;;;;8.27;6.87;;;;;;;;;;5026990;28;20194;-83
2024/03/06 10:17:49;;;;;;;6.77;5.77;;;;;;;;;;4996300;28;21169;-83
2024/03/06 10:20:20;;;;;;;7.93;7.00;;;;;;;;;;5023689;28;20625;-84
2024/03/06 10:22:51;;;;;;;6.73;5.80;;;;;;;;;;5023997;28;20612;-83
2024/03/06 10:25:21;;;;;;;8.43;7.73;;;;;;;;;;5024943;28;20612;-84
2024/03/06 10:28:07;;;;;;;8.03;7.30;;;;;;;;;;5034322;28;21280;-85
2024/03/06 10:30:36;;;;;;;11.43;7.43;;;;;;;;;;5028703;28;21195;-84
2024/03/06 10:33:07;;;;;;;7.90;7.27;;;;;;;;;;4998356;28;20634;-83
2024/03/06 10:35:37;;;;;;;9.33;7.97;;;;;;;;;;5026929;28;20627;-82
2024/03/06 10:38:08;;;;;;;7.73;7.00;;;;;;;;;;5027481;28;21233;-82
2024/03/06 10:40:37;;;;;;;8.90;7.90;;;;;;;;;;4999152;28;20597;-86
2024/03/06 10:43:06;;;;;;;9.30;8.00;;;;;;;;;;5028584;28;21040;-82
2024/03/06 10:45:42;;;;;;;9.43;8.43;;;;;;;;;;5030055;28;20627;-83
2024/03/06 10:48:12;;;;;;;9.70;8.27;;;;;;;;;;5026701;28;20600;-82
2024/03/06 10:50:41;;;;;;;7.10;6.50;;;;;;;;;;5021963;28;20213;-82
2024/03/06 10:53:13;;;;;;;8.37;7.47;;;;;;;;;;5017701;28;20652;-81
2024/03/06 10:55:41;;;;;;;6.83;6.40;;;;;;;;;;4989242;28;20652;-81
2024/03/06 10:58:10;;;;;;;9.93;8.10;;;;;;;;;;5022588;28;20649;-82
2024/03/06 11:00:39;;;;;;;8.63;7.83;;;;;;;;;;5028739;28;20594;-85
2024/03/06 11:03:09;;;;;;;8.00;7.23;;;;;;;;;;5002293;28;20620;-85
2024/03/06 11:05:40;;;;;;;8.47;7.77;;;;;;;;;;5021691;28;20612;-84
2024/03/06 11:08:09;;;;;;;8.00;7.50;;;;;;;;;;5018271;28;20643;-88
2024/03/06 11:10:39;;;;;;;8.53;7.70;;;;;;;;;;5024419;28;20994;-84
2024/03/06 11:13:11;;;;;;;8.27;7.53;;;;;;;;;;5021201;28;20671;-83
2024/03/06 11:15:39;;;;;;;8.73;8.13;;;;;;;;;;5012515;28;20613;-83
2024/03/06 11:18:28;;;;;;;9.27;8.00;;;;;;;;;;5011124;28;21159;-83
2024/03/06 11:21:22;;;;;;;10.43;7.13;;;;;;;;;;5016926;28;21147;-80
2024/03/06 11:24:05;;;;;;;7.40;6.80;;;;;;;;;;5009403;28;20629;-84
2024/03/06 11:26:37;;;;;;;10.20;7.20;;;;;;;;;;5010254;28;20625;-82
2024/03/06 11:29:05;;;;;;;8.67;7.80;;;;;;;;;;5012418;28;20620;-83
2024/03/06 11:31:34;;;;;;;9.45;8.57;;;;;;;;;;5029774;28;20681;-84
2024/03/06 11:34:06;;;;;;;8.07;7.47;;;;;;;;;;5013492;28;20240;-83
2024/03/06 11:36:37;;;;;;;7.37;6.70;;;;;;;;;;5012603;28;20590;-82
2024/03/06 11:39:06;;;;;;;7.90;7.10;;;;;;;;;;5004486;28;20976;-82
2024/03/06 11:41:49;;;;;;;7.70;6.90;;;;;;;;;;5017724;28;20674;-81
2024/03/06 11:44:18;;;;;;;8.17;7.03;;;;;;;;;;5027003;28;20706;-83
2024/03/06 11:46:48;;;;;;;7.00;6.50;;;;;;;;;;5010598;28;20623;-84
2024/03/06 11:49:17;;;;;;;7.30;6.80;;;;;;;;;;5025613;28;20719;-84
2024/03/06 11:51:47;;;;;;;7.55;6.85;;;;;;;;;;5033895;28;20650;-85
2024/03/06 11:54:16;;;;;;;6.73;6.03;;;;;;;;;;5021382;28;20739;-84
2024/03/06 11:56:47;;;;;;;10.17;7.20;;;;;;;;;;5015691;28;20599;-81
2024/03/06 11:59:15;;;;;;;8.93;6.80;;;;;;;;;;5017513;28;21353;-84
2024/03/06 12:01:44;;;;;;;6.47;5.93;;;;;;;;;;5017609;28;20619;-84
2024/03/06 12:04:13;;;;;;;7.55;6.95;;;;;;;;;;5014519;28;20591;-80
2024/03/06 12:06:41;;;;;;;8.02;6.70;;;;;;;;;;5014908;28;20217;-81
2024/03/06 12:09:13;;;;;;;8.07;6.90;;;;;;;;;;5018576;28;20745;-81
2024/03/06 12:11:43;;;;;;;7.40;6.70;;;;;;;;;;5005030;28;20711;-80
2024/03/06 12:14:18;;;;;;;7.67;6.33;;;;;;;;;;5018017;28;20634;-80
2024/03/06 12:16:57;;;;;;;10.17;7.47;;;;;;;;;;5018128;28;20622;-82
2024/03/06 12:19:29;;;;;;;7.28;6.68;;;;;;;;;;5009141;28;21121;-81
2024/03/06 12:22:01;;;;;;;7.77;7.27;;;;;;;;;;5011024;28;20206;-81
2024/03/06 12:24:29;;;;;;;7.70;7.10;;;;;;;;;;5009139;28;20686;-80
2024/03/06 12:27:04;;;;;;;9.60;8.67;;;;;;;;;;5013632;28;20615;-81
2024/03/06 12:29:35;;;;;;;21.92;18.00;;;;;;;;;;5009489;28;20603;-81
2024/03/06 12:32:03;;;;;;;7.47;6.97;;;;;;;;;;5008688;28;20687;-81
2024/03/06 12:34:32;;;;;;;7.27;6.63;;;;;;;;;;5006402;28;20665;-81
2024/03/06 12:37:10;;;;;;;8.77;8.03;;;;;;;;;;5016904;28;20591;-82
2024/03/06 12:39:38;;;;;;;7.90;7.33;;;;;;;;;;5004379;28;20617;-82
2024/03/06 12:42:07;;;;;;;8.37;7.57;;;;;;;;;;5023192;28;20595;-80
2024/03/06 12:44:37;;;;;;;8.07;6.77;;;;;;;;;;5029009;28;20638;-82
2024/03/06 12:47:07;;;;;;;7.30;6.70;;;;;;;;;;5019701;28;20617;-81
2024/03/06 12:49:39;;;;;;;9.13;7.70;;;;;;;;;;5025080;28;20603;-81
2024/03/06 12:52:08;;;;;;;7.97;7.27;;;;;;;;;;5017529;28;20744;-82
2024/03/06 12:54:37;;;;;;;8.60;7.90;;;;;;;;;;5008269;28;21270;-81
2024/03/06 12:57:08;;;;;;;9.37;8.43;;;;;;;;;;5026635;28;21366;-80
2024/03/06 12:59:38;;;;;;;8.10;7.30;;;;;;;;;;5006274;28;20661;-82
2024/03/06 13:02:07;;;;;;;7.57;7.00;;;;;;;;;;5028127;28;20595;-81
2024/03/06 13:04:35;;;;;;;10.73;9.73;;;;;;;;;;5017636;28;20637;-80
2024/03/06 13:07:06;;;;;;;7.70;7.20;;;;;;;;;;5024478;28;20627;-79
2024/03/06 13:09:34;;;;;;;8.03;7.33;;;;;;;;;;5017579;28;20623;-81
2024/03/06 13:12:06;;;;;;;7.07;6.40;;;;;;;;;;5014127;28;20692;-78
2024/03/06 13:14:34;;;;;;;7.10;6.40;;;;;;;;;;5011756;28;20660;-78
2024/03/06 13:17:07;;;;;;;7.60;7.00;;;;;;;;;;4989942;28;20671;-79
2024/03/06 13:19:36;;;;;;;5.90;5.50;;;;;;;;;;5016435;28;20985;-79
2024/03/06 13:22:06;;;;;;;8.00;7.20;;;;;;;;;;5016189;28;20623;-80
2024/03/06 13:24:35;;;;;;;7.13;6.50;;;;;;;;;;5016646;28;20621;-80
2024/03/06 13:27:03;;;;;;;7.00;6.33;;;;;;;;;;5015300;28;20715;-84
2024/03/06 13:29:32;;;;;;;9.63;7.43;;;;;;;;;;5013116;28;20580;-80
2024/03/06 13:32:03;;;;;;;9.37;8.53;;;;;;;;;;5019830;28;20628;-79
2024/03/06 13:34:32;;;;;;;7.50;6.90;;;;;;;;;;5010289;28;20673;-82
2024/03/06 13:37:01;;;;;;;7.40;6.80;;;;;;;;;;5012610;28;20706;-80
2024/03/06 13:39:29;;;;;;;6.93;6.33;;;;;;;;;;5013677;28;20629;-80
2024/03/06 13:42:00;;;;;;;12.00;6.70;;;;;;;;;;5018745;28;20628;-80
2024/03/06 13:44:28;;;;;;;7.40;6.70;;;;;;;;;;5005456;28;20994;-79
2024/03/06 13:46:58;;;;;;;5.97;5.53;;;;;;;;;;4999331;28;20596;-80
2024/03/06 13:49:38;;;;;;;8.23;6.67;;;;;;;;;;5026055;28;21003;-80
2024/03/06 13:52:06;;;;;;;6.17;5.70;;;;;;;;;;5027045;28;20627;-80
2024/03/06 13:54:39;;;;;;;7.33;6.63;;;;;;;;;;5004461;28;21013;-79
2024/03/06 13:57:07;;;;;;;6.20;5.70;;;;;;;;;;5006112;28;20685;-80
2024/03/06 13:59:37;;;;;;;6.60;6.00;;;;;;;;;;5024598;28;20631;-79
2024/03/06 14:02:06;;;;;;;6.33;5.70;;;;;;;;;;5017603;28;20627;-80
2024/03/06 14:04:34;;;;;;;8.93;6.10;;;;;;;;;;5021705;28;20650;-80
2024/03/06 14:07:04;;;;;;;10.10;5.90;;;;;;;;;;5023153;28;20624;-80
2024/03/06 14:09:33;;;;;;;9.40;5.63;;;;;;;;;;5028900;28;20624;-81
2024/03/06 14:12:01;;;;;;;6.70;5.97;;;;;;;;;;5020634;28;20624;-80
2024/03/06 14:14:30;;;;;;;7.20;5.90;;;;;;;;;;5003364;28;20752;-79
2024/03/06 14:16:59;;;;;;;6.97;5.30;;;;;;;;;;5023767;28;20985;-80
2024/03/06 14:19:27;;;;;;;6.47;5.90;;;;;;;;;;5024092;28;20634;-79
2024/03/06 14:21:56;;;;;;;6.27;5.67;;;;;;;;;;5027375;28;20628;-79
2024/03/06 14:24:25;;;;;;;8.03;7.03;;;;;;;;;;5028578;28;20846;-79
2024/03/06 14:26:54;;;;;;;6.83;6.23;;;;;;;;;;5020279;28;20663;-79
2024/03/06 14:29:22;;;;;;;9.20;5.83;;;;;;;;;;5023987;28;20620;-79
2024/03/06 14:31:51;;;;;;;6.70;6.00;;;;;;;;;;5030704;28;20628;-80
2024/03/06 14:34:20;;;;;;;6.83;5.97;;;;;;;;;;5028936;28;20656;-78
2024/03/06 14:36:48;;;;;;;6.60;5.47;;;;;;;;;;5025917;28;20624;-79
2024/03/06 14:39:16;;;;;;;6.53;5.93;;;;;;;;;;5023654;28;20640;-80
2024/03/06 14:41:46;;;;;;;7.77;6.20;;;;;;;;;;5024497;28;21176;-79
2024/03/06 14:44:15;;;;;;;7.23;6.37;;;;;;;;;;5026363;28;20990;-80
2024/03/06 14:46:43;;;;;;;6.50;5.90;;;;;;;;;;5025763;28;20629;-80
2024/03/06 14:49:17;;;;;;;7.10;6.40;;;;;;;;;;5019568;28;20632;-81
2024/03/06 14:51:45;;;;;;;7.28;5.50;;;;;;;;;;5018350;28;20598;-80
2024/03/06 14:54:14;;;;;;;10.93;5.70;;;;;;;;;;5023528;28;20235;-80